EPKT/KTW METAR and TAF weather

Enter ICAO airport designator
Station Type Date Time Source
EPKT METAR 2021/03/05 18:30 UTC NOAA

EPKT 051830Z 30005KT 9999 FEW039 M03/M07 Q1024


Station Type Date Time Source
EPKT Decoded METAR 2021/03/05 18:30 UTC NOAA

Katowice, Poland (EPKT) 50-14N 019-02E 284M
Mar 05, 2021 - 01:30 PM EST / 2021.03.05 1830 UTC
Wind: from the WNW (300 degrees) at 6 MPH (5 KT):0
Visibility: greater than 7 mile(s):0
Sky conditions: mostly clear
Temperature: 26 F (-3 C)
Windchill: 19 F (-7 C):1
Dew Point: 19 F (-7 C)
Relative Humidity: 73%
Pressure (altimeter): 30.24 in. Hg (1024 hPa)
ob: EPKT 051830Z 30005KT 9999 FEW039 M03/M07 Q1024
cycle: 18

Station Type Date Time Source
EPKT TAF 2021/03/05 18:33 UTC NOAA

TAF EPKT 051730Z 0518/0618 30007KT CAVOK PROB40
TEMPO 0518/0615 4000 -SHSN BKN014CB

Example: see airport list